Terminal Aerodrome Forecast
Issued by NWS Denver/Boulder, CO

Home | Current Version | Previous Version | Text Only | Print | Product List | Glossary On
Versions: 1 2 3 4 5 6 7 8 9 10 11 12 13 14 15 16 17 18 19 20 21 22 23 24 25 26 27 28 29 30 31 32 33 34 35 36 37 38 39 40 41
000
FTUS45 KBOU 211456 AAA
TAFDEN
TAF AMD
KDEN 211456Z 2115/2218 23010KT P6SM FEW100 SCT120
     FM211600 18006KT P6SM FEW100 SCT120
     FM211900 16006KT P6SM SCT080 BKN120
     FM212300 27010KT P6SM SCT070 BKN120 PROB30 2200/2204 -SHRA
      SCT060 BKN080
     FM220400 33011KT P6SM SCT080 BKN150
     FM220700 23010KT P6SM SCT080 BKN150=

USA.gov is the U.S. government's official web portal to all federal, state and local government web resources and services.